Metar z pełnej godziny Komunikat METAR ze strony awiacja.imgw.pl Metar G00 EPPO METAR EPPO 172100Z 08002KT 9000 NSC 09/07 Q1020 =